sensor_id;sensor_type;location;lat;lon;timestamp;pressure;altitude;pressure_sealevel;temperature;humidity
66742;BME280;53654;54.152;19.432;2023-06-01T00:00:12;101485.09;;;14.23;58.97
66742;BME280;53654;54.152;19.432;2023-06-01T00:03:02;101489.94;;;14.15;59.05
66742;BME280;53654;54.152;19.432;2023-06-01T00:05:31;101486.14;;;14.08;58.63
66742;BME280;53654;54.152;19.432;2023-06-01T00:07:59;101481.81;;;14.03;58.42
66742;BME280;53654;54.152;19.432;2023-06-01T00:10:27;101484.48;;;13.99;58.60
66742;BME280;53654;54.152;19.432;2023-06-01T00:12:55;101483.65;;;13.96;59.16
66742;BME280;53654;54.152;19.432;2023-06-01T00:15:24;101481.94;;;13.92;59.27
66742;BME280;53654;54.152;19.432;2023-06-01T00:17:52;101476.16;;;13.90;59.24
66742;BME280;53654;54.152;19.432;2023-06-01T00:20:20;101476.91;;;13.87;59.07
66742;BME280;53654;54.152;19.432;2023-06-01T00:22:49;101472.91;;;13.83;59.10
66742;BME280;53654;54.152;19.432;2023-06-01T00:25:17;101475.92;;;13.80;59.27
66742;BME280;53654;54.152;19.432;2023-06-01T00:27:46;101470.36;;;13.76;59.19
66742;BME280;53654;54.152;19.432;2023-06-01T00:30:14;101474.96;;;13.72;59.15
66742;BME280;53654;54.152;19.432;2023-06-01T00:32:42;101471.65;;;13.69;59.21
66742;BME280;53654;54.152;19.432;2023-06-01T00:35:10;101469.77;;;13.64;59.35
66742;BME280;53654;54.152;19.432;2023-06-01T00:37:39;101466.82;;;13.61;59.59
66742;BME280;53654;54.152;19.432;2023-06-01T00:40:08;101461.60;;;13.57;59.74
66742;BME280;53654;54.152;19.432;2023-06-01T00:42:36;101460.06;;;13.53;59.94
66742;BME280;53654;54.152;19.432;2023-06-01T00:45:05;101459.04;;;13.49;60.04
66742;BME280;53654;54.152;19.432;2023-06-01T00:47:39;101461.71;;;13.45;60.25
66742;BME280;53654;54.152;19.432;2023-06-01T00:50:10;101462.14;;;13.36;60.62
66742;BME280;53654;54.152;19.432;2023-06-01T00:52:40;101462.90;;;13.30;61.11
66742;BME280;53654;54.152;19.432;2023-06-01T00:55:09;101460.85;;;13.23;61.43
66742;BME280;53654;54.152;19.432;2023-06-01T00:57:45;101458.26;;;13.15;61.49
66742;BME280;53654;54.152;19.432;2023-06-01T01:00:14;101453.05;;;13.08;61.56
66742;BME280;53654;54.152;19.432;2023-06-01T01:02:42;101455.70;;;13.06;61.62
66742;BME280;53654;54.152;19.432;2023-06-01T01:05:16;101450.98;;;13.02;61.39
66742;BME280;53654;54.152;19.432;2023-06-01T01:07:55;101449.42;;;13.01;61.28
66742;BME280;53654;54.152;19.432;2023-06-01T01:10:33;101447.70;;;12.97;61.23
66742;BME280;53654;54.152;19.432;2023-06-01T01:18:24;101435.81;;;12.94;61.72
66742;BME280;53654;54.152;19.432;2023-06-01T01:20:58;101438.98;;;12.90;61.48
66742;BME280;53654;54.152;19.432;2023-06-01T01:26:23;101433.77;;;12.85;61.35
66742;BME280;53654;54.152;19.432;2023-06-01T01:29:01;101431.33;;;12.85;61.61
66742;BME280;53654;54.152;19.432;2023-06-01T01:31:32;101430.29;;;12.83;61.51
66742;BME280;53654;54.152;19.432;2023-06-01T01:34:03;101427.67;;;12.82;61.78
66742;BME280;53654;54.152;19.432;2023-06-01T01:36:32;101424.52;;;12.82;61.77
66742;BME280;53654;54.152;19.432;2023-06-01T01:39:00;101423.98;;;12.83;61.80
66742;BME280;53654;54.152;19.432;2023-06-01T01:41:29;101427.48;;;12.83;61.80
66742;BME280;53654;54.152;19.432;2023-06-01T01:43:57;101428.36;;;12.84;61.95
66742;BME280;53654;54.152;19.432;2023-06-01T01:46:37;101428.53;;;12.83;62.00
66742;BME280;53654;54.152;19.432;2023-06-01T01:49:41;101429.26;;;12.80;61.99
66742;BME280;53654;54.152;19.432;2023-06-01T01:52:18;101427.90;;;12.74;62.12
66742;BME280;53654;54.152;19.432;2023-06-01T01:54:49;101428.78;;;12.73;62.31
66742;BME280;53654;54.152;19.432;2023-06-01T01:57:18;101430.19;;;12.73;62.44
66742;BME280;53654;54.152;19.432;2023-06-01T01:59:47;101431.75;;;12.74;62.55
66742;BME280;53654;54.152;19.432;2023-06-01T02:02:17;101432.45;;;12.75;62.69
66742;BME280;53654;54.152;19.432;2023-06-01T02:04:45;101427.37;;;12.75;62.50
66742;BME280;53654;54.152;19.432;2023-06-01T02:07:14;101426.66;;;12.76;62.39
66742;BME280;53654;54.152;19.432;2023-06-01T02:09:44;101424.39;;;12.76;62.57
66742;BME280;53654;54.152;19.432;2023-06-01T02:12:12;101420.54;;;12.76;62.51
66742;BME280;53654;54.152;19.432;2023-06-01T02:14:41;101420.20;;;12.74;62.68
66742;BME280;53654;54.152;19.432;2023-06-01T02:17:09;101417.22;;;12.74;62.77
66742;BME280;53654;54.152;19.432;2023-06-01T02:19:37;101411.97;;;12.74;62.73
66742;BME280;53654;54.152;19.432;2023-06-01T02:22:06;101415.65;;;12.73;62.62
66742;BME280;53654;54.152;19.432;2023-06-01T02:24:35;101417.77;;;12.70;62.74
66742;BME280;53654;54.152;19.432;2023-06-01T02:27:03;101416.73;;;12.70;62.88
66742;BME280;53654;54.152;19.432;2023-06-01T02:29:33;101413.23;;;12.70;63.13
66742;BME280;53654;54.152;19.432;2023-06-01T02:32:01;101415.85;;;12.68;63.07
66742;BME280;53654;54.152;19.432;2023-06-01T02:34:30;101413.75;;;12.68;62.97
66742;BME280;53654;54.152;19.432;2023-06-01T02:36:58;101409.04;;;12.67;63.13
66742;BME280;53654;54.152;19.432;2023-06-01T02:39:27;101409.73;;;12.67;63.49
66742;BME280;53654;54.152;19.432;2023-06-01T02:41:55;101404.66;;;12.66;63.42
66742;BME280;53654;54.152;19.432;2023-06-01T02:44:23;101402.40;;;12.65;63.65
66742;BME280;53654;54.152;19.432;2023-06-01T02:46:51;101405.73;;;12.64;63.83
66742;BME280;53654;54.152;19.432;2023-06-01T02:49:20;101406.61;;;12.63;63.90
66742;BME280;53654;54.152;19.432;2023-06-01T02:51:48;101402.77;;;12.62;64.05
66742;BME280;53654;54.152;19.432;2023-06-01T02:54:20;101405.59;;;12.59;64.02
66742;BME280;53654;54.152;19.432;2023-06-01T02:56:49;101403.50;;;12.58;64.13
66742;BME280;53654;54.152;19.432;2023-06-01T02:59:46;101403.15;;;12.56;64.20
66742;BME280;53654;54.152;19.432;2023-06-01T03:02:14;101395.09;;;12.58;64.66
66742;BME280;53654;54.152;19.432;2023-06-01T03:04:43;101397.71;;;12.60;64.79
66742;BME280;53654;54.152;19.432;2023-06-01T03:07:11;101395.25;;;12.61;64.59
66742;BME280;53654;54.152;19.432;2023-06-01T03:09:53;101395.27;;;12.58;64.67
66742;BME280;53654;54.152;19.432;2023-06-01T03:12:50;101394.78;;;12.53;64.74
66742;BME280;53654;54.152;19.432;2023-06-01T03:15:18;101395.12;;;12.54;65.00
66742;BME280;53654;54.152;19.432;2023-06-01T03:17:47;101389.16;;;12.55;65.10
66742;BME280;53654;54.152;19.432;2023-06-01T03:20:16;101389.14;;;12.57;65.11
66742;BME280;53654;54.152;19.432;2023-06-01T03:22:45;101389.31;;;12.58;65.01
66742;BME280;53654;54.152;19.432;2023-06-01T03:25:13;101390.89;;;12.58;64.92
66742;BME280;53654;54.152;19.432;2023-06-01T03:27:42;101389.48;;;12.59;64.89
66742;BME280;53654;54.152;19.432;2023-06-01T03:30:10;101386.48;;;12.63;64.83
66742;BME280;53654;54.152;19.432;2023-06-01T03:32:41;101385.59;;;12.67;64.77
66742;BME280;53654;54.152;19.432;2023-06-01T03:35:11;101383.27;;;12.71;65.08
66742;BME280;53654;54.152;19.432;2023-06-01T03:37:41;101387.08;;;12.78;64.80
66742;BME280;53654;54.152;19.432;2023-06-01T03:40:10;101381.58;;;12.87;64.82
66742;BME280;53654;54.152;19.432;2023-06-01T03:42:41;101376.11;;;13.14;64.42
66742;BME280;53654;54.152;19.432;2023-06-01T03:45:11;101374.90;;;13.65;63.36
66742;BME280;53654;54.152;19.432;2023-06-01T03:47:40;101369.54;;;14.31;61.70
66742;BME280;53654;54.152;19.432;2023-06-01T03:50:09;101364.89;;;15.04;59.83
66742;BME280;53654;54.152;19.432;2023-06-01T03:52:38;101359.95;;;15.82;57.46
66742;BME280;53654;54.152;19.432;2023-06-01T03:55:07;101361.44;;;16.60;55.24
66742;BME280;53654;54.152;19.432;2023-06-01T03:57:58;101355.44;;;17.37;53.08
66742;BME280;53654;54.152;19.432;2023-06-01T04:00:26;101346.73;;;18.03;51.12
66742;BME280;53654;54.152;19.432;2023-06-01T04:02:57;101344.98;;;18.65;49.27
66742;BME280;53654;54.152;19.432;2023-06-01T04:05:27;101344.73;;;19.20;47.81
66742;BME280;53654;54.152;19.432;2023-06-01T04:07:55;101344.23;;;19.74;46.50
66742;BME280;53654;54.152;19.432;2023-06-01T04:10:24;101347.70;;;20.32;45.27
66742;BME280;53654;54.152;19.432;2023-06-01T04:12:52;101340.86;;;20.83;44.09
66742;BME280;53654;54.152;19.432;2023-06-01T04:15:25;101338.03;;;21.33;43.05
66742;BME280;53654;54.152;19.432;2023-06-01T04:17:53;101333.13;;;21.84;41.94
66742;BME280;53654;54.152;19.432;2023-06-01T04:20:22;101326.50;;;22.34;40.87
66742;BME280;53654;54.152;19.432;2023-06-01T04:22:51;101325.27;;;22.80;40.03
66742;BME280;53654;54.152;19.432;2023-06-01T04:25:20;101319.43;;;23.25;39.24
66742;BME280;53654;54.152;19.432;2023-06-01T04:27:50;101317.99;;;23.66;38.52
66742;BME280;53654;54.152;19.432;2023-06-01T04:30:25;101318.18;;;24.05;37.87
66742;BME280;53654;54.152;19.432;2023-06-01T04:32:54;101313.12;;;24.44;37.09
66742;BME280;53654;54.152;19.432;2023-06-01T04:35:23;101305.64;;;24.81;36.54
66742;BME280;53654;54.152;19.432;2023-06-01T04:37:52;101309.02;;;25.11;36.13
66742;BME280;53654;54.152;19.432;2023-06-01T04:40:20;101303.30;;;25.34;35.85
66742;BME280;53654;54.152;19.432;2023-06-01T04:42:49;101303.04;;;25.59;35.49
66742;BME280;53654;54.152;19.432;2023-06-01T04:45:24;101302.65;;;25.82;35.07
66742;BME280;53654;54.152;19.432;2023-06-01T04:47:53;101304.98;;;26.05;34.82
66742;BME280;53654;54.152;19.432;2023-06-01T04:50:34;101306.09;;;26.26;34.75
66742;BME280;53654;54.152;19.432;2023-06-01T04:53:04;101304.78;;;26.44;34.34
66742;BME280;53654;54.152;19.432;2023-06-01T04:55:32;101298.05;;;26.51;34.20
66742;BME280;53654;54.152;19.432;2023-06-01T04:58:01;101297.11;;;26.52;34.22
66742;BME280;53654;54.152;19.432;2023-06-01T05:00:29;101294.67;;;26.48;34.19
66742;BME280;53654;54.152;19.432;2023-06-01T05:02:58;101296.80;;;26.56;34.03
66742;BME280;53654;54.152;19.432;2023-06-01T05:05:26;101294.96;;;26.54;34.30
66742;BME280;53654;54.152;19.432;2023-06-01T05:07:55;101294.85;;;26.59;34.42
66742;BME280;53654;54.152;19.432;2023-06-01T05:10:24;101292.59;;;26.71;34.34
66742;BME280;53654;54.152;19.432;2023-06-01T05:12:52;101294.64;;;26.83;34.22
66742;BME280;53654;54.152;19.432;2023-06-01T05:15:21;101294.57;;;26.92;34.20
66742;BME280;53654;54.152;19.432;2023-06-01T05:17:49;101295.88;;;27.10;33.88
66742;BME280;53654;54.152;19.432;2023-06-01T05:20:20;101290.56;;;27.32;33.67
66742;BME280;53654;54.152;19.432;2023-06-01T05:22:53;101297.52;;;27.53;33.52
66742;BME280;53654;54.152;19.432;2023-06-01T05:25:21;101296.03;;;27.74;33.28
66742;BME280;53654;54.152;19.432;2023-06-01T05:27:50;101293.92;;;27.78;33.46
66742;BME280;53654;54.152;19.432;2023-06-01T05:30:18;101288.79;;;27.75;33.26
66742;BME280;53654;54.152;19.432;2023-06-01T05:32:48;101291.79;;;27.70;33.71
66742;BME280;53654;54.152;19.432;2023-06-01T05:35:18;101285.50;;;27.66;33.64
66742;BME280;53654;54.152;19.432;2023-06-01T05:37:47;101283.83;;;27.77;33.48
66742;BME280;53654;54.152;19.432;2023-06-01T05:40:15;101278.89;;;27.90;33.49
66742;BME280;53654;54.152;19.432;2023-06-01T05:42:44;101273.66;;;27.93;33.44
66742;BME280;53654;54.152;19.432;2023-06-01T05:45:12;101279.64;;;28.00;33.45
66742;BME280;53654;54.152;19.432;2023-06-01T05:47:41;101278.98;;;28.13;33.28
66742;BME280;53654;54.152;19.432;2023-06-01T05:50:10;101275.96;;;28.30;32.82
66742;BME280;53654;54.152;19.432;2023-06-01T05:52:39;101272.75;;;28.46;32.67
66742;BME280;53654;54.152;19.432;2023-06-01T05:55:10;101272.73;;;28.61;32.50
66742;BME280;53654;54.152;19.432;2023-06-01T05:57:39;101275.27;;;28.75;32.52
66742;BME280;53654;54.152;19.432;2023-06-01T06:00:09;101278.83;;;28.87;32.30
66742;BME280;53654;54.152;19.432;2023-06-01T06:02:43;101278.11;;;28.85;32.04
66742;BME280;53654;54.152;19.432;2023-06-01T06:05:12;101274.33;;;28.88;31.98
66742;BME280;53654;54.152;19.432;2023-06-01T06:07:40;101277.06;;;29.01;31.41
66742;BME280;53654;54.152;19.432;2023-06-01T06:10:10;101274.88;;;29.15;31.48
66742;BME280;53654;54.152;19.432;2023-06-01T06:12:39;101282.33;;;29.16;31.55
66742;BME280;53654;54.152;19.432;2023-06-01T06:15:08;101279.27;;;29.05;31.32
66742;BME280;53654;54.152;19.432;2023-06-01T06:17:36;101278.41;;;28.97;31.19
66742;BME280;53654;54.152;19.432;2023-06-01T06:20:05;101281.44;;;28.91;31.52
66742;BME280;53654;54.152;19.432;2023-06-01T06:22:35;101278.33;;;28.91;31.31
66742;BME280;53654;54.152;19.432;2023-06-01T06:25:05;101270.35;;;28.93;31.05
66742;BME280;53654;54.152;19.432;2023-06-01T06:27:34;101272.83;;;28.93;30.81
66742;BME280;53654;54.152;19.432;2023-06-01T06:30:03;101274.73;;;28.80;31.00
66742;BME280;53654;54.152;19.432;2023-06-01T06:32:31;101272.84;;;28.57;31.12
66742;BME280;53654;54.152;19.432;2023-06-01T06:34:59;101275.16;;;28.24;31.66
66742;BME280;53654;54.152;19.432;2023-06-01T06:37:28;101276.32;;;27.94;32.12
66742;BME280;53654;54.152;19.432;2023-06-01T06:39:57;101280.67;;;27.65;32.88
66742;BME280;53654;54.152;19.432;2023-06-01T06:42:26;101282.93;;;27.34;33.43
66742;BME280;53654;54.152;19.432;2023-06-01T06:44:55;101278.30;;;27.08;33.50
66742;BME280;53654;54.152;19.432;2023-06-01T06:47:25;101279.20;;;26.92;33.58
66742;BME280;53654;54.152;19.432;2023-06-01T06:49:54;101278.40;;;26.80;34.07
66742;BME280;53654;54.152;19.432;2023-06-01T06:52:22;101275.70;;;26.61;34.13
66742;BME280;53654;54.152;19.432;2023-06-01T06:54:50;101278.34;;;26.46;34.15
66742;BME280;53654;54.152;19.432;2023-06-01T06:57:18;101278.44;;;26.28;34.54
66742;BME280;53654;54.152;19.432;2023-06-01T06:59:46;101277.09;;;26.11;35.20
66742;BME280;53654;54.152;19.432;2023-06-01T07:02:14;101279.02;;;25.94;35.35
66742;BME280;53654;54.152;19.432;2023-06-01T07:04:43;101279.44;;;25.77;35.63
66742;BME280;53654;54.152;19.432;2023-06-01T07:07:11;101278.25;;;25.58;36.29
66742;BME280;53654;54.152;19.432;2023-06-01T07:09:39;101277.52;;;25.50;36.62
66742;BME280;53654;54.152;19.432;2023-06-01T07:12:08;101283.05;;;25.53;37.00
66742;BME280;53654;54.152;19.432;2023-06-01T07:14:37;101275.37;;;25.64;36.37
66742;BME280;53654;54.152;19.432;2023-06-01T07:17:05;101275.28;;;25.85;35.95
66742;BME280;53654;54.152;19.432;2023-06-01T07:19:34;101274.98;;;26.01;35.48
66742;BME280;53654;54.152;19.432;2023-06-01T07:22:02;101274.48;;;26.04;35.71
66742;BME280;53654;54.152;19.432;2023-06-01T07:24:30;101275.45;;;26.09;35.73
66742;BME280;53654;54.152;19.432;2023-06-01T07:26:59;101272.39;;;26.06;36.21
66742;BME280;53654;54.152;19.432;2023-06-01T07:29:27;101273.98;;;26.01;36.11
66742;BME280;53654;54.152;19.432;2023-06-01T07:31:55;101272.55;;;25.89;35.97
66742;BME280;53654;54.152;19.432;2023-06-01T07:34:24;101279.81;;;25.79;36.40
66742;BME280;53654;54.152;19.432;2023-06-01T07:36:53;101278.46;;;25.67;36.91
66742;BME280;53654;54.152;19.432;2023-06-01T07:39:41;101279.64;;;25.36;37.11
66742;BME280;53654;54.152;19.432;2023-06-01T07:42:10;101280.52;;;25.10;38.30
66742;BME280;53654;54.152;19.432;2023-06-01T07:44:38;101273.16;;;24.87;38.11
66742;BME280;53654;54.152;19.432;2023-06-01T07:47:06;101270.89;;;24.62;38.20
66742;BME280;53654;54.152;19.432;2023-06-01T07:49:35;101282.86;;;24.37;39.24
66742;BME280;53654;54.152;19.432;2023-06-01T07:52:05;101277.14;;;24.12;39.71
66742;BME280;53654;54.152;19.432;2023-06-01T07:54:34;101273.94;;;23.93;40.12
66742;BME280;53654;54.152;19.432;2023-06-01T07:57:06;101276.78;;;23.84;40.27
66742;BME280;53654;54.152;19.432;2023-06-01T07:59:34;101280.72;;;23.77;40.68
66742;BME280;53654;54.152;19.432;2023-06-01T08:02:02;101282.30;;;23.70;40.67
66742;BME280;53654;54.152;19.432;2023-06-01T08:04:30;101273.91;;;23.55;40.87
66742;BME280;53654;54.152;19.432;2023-06-01T08:07:01;101273.52;;;23.38;41.58
66742;BME280;53654;54.152;19.432;2023-06-01T08:09:35;101273.42;;;23.20;41.52
66742;BME280;53654;54.152;19.432;2023-06-01T08:12:06;101277.52;;;23.10;42.16
66742;BME280;53654;54.152;19.432;2023-06-01T08:14:35;101275.16;;;23.01;42.07
66742;BME280;53654;54.152;19.432;2023-06-01T08:17:04;101273.08;;;22.89;41.47
66742;BME280;53654;54.152;19.432;2023-06-01T08:19:35;101271.63;;;22.79;42.80
66742;BME280;53654;54.152;19.432;2023-06-01T08:22:05;101269.31;;;22.79;43.02
66742;BME280;53654;54.152;19.432;2023-06-01T08:24:35;101267.45;;;22.81;43.61
66742;BME280;53654;54.152;19.432;2023-06-01T08:29:46;101267.87;;;22.90;42.59
66742;BME280;53654;54.152;19.432;2023-06-01T08:32:19;101263.79;;;22.94;42.89
66742;BME280;53654;54.152;19.432;2023-06-01T08:34:48;101261.55;;;22.96;42.83
66742;BME280;53654;54.152;19.432;2023-06-01T08:37:17;101259.73;;;23.10;42.63
66742;BME280;53654;54.152;19.432;2023-06-01T08:39:45;101259.89;;;23.20;42.01
66742;BME280;53654;54.152;19.432;2023-06-01T08:42:37;101258.41;;;23.35;42.10
66742;BME280;53654;54.152;19.432;2023-06-01T08:45:07;101258.73;;;23.48;41.27
66742;BME280;53654;54.152;19.432;2023-06-01T08:47:36;101256.05;;;23.59;41.87
66742;BME280;53654;54.152;19.432;2023-06-01T08:50:08;101261.30;;;23.70;41.70
66742;BME280;53654;54.152;19.432;2023-06-01T08:52:38;101259.17;;;23.77;41.51
66742;BME280;53654;54.152;19.432;2023-06-01T08:55:07;101258.27;;;23.89;41.23
66742;BME280;53654;54.152;19.432;2023-06-01T08:57:35;101251.40;;;23.97;40.30
66742;BME280;53654;54.152;19.432;2023-06-01T09:00:11;101246.08;;;24.00;39.65
66742;BME280;53654;54.152;19.432;2023-06-01T09:02:43;101246.45;;;24.09;39.79
66742;BME280;53654;54.152;19.432;2023-06-01T09:05:12;101240.89;;;24.20;40.27
66742;BME280;53654;54.152;19.432;2023-06-01T09:07:41;101233.99;;;24.34;40.27
66742;BME280;53654;54.152;19.432;2023-06-01T09:10:09;101235.54;;;24.47;39.36
66742;BME280;53654;54.152;19.432;2023-06-01T09:12:37;101239.28;;;24.53;39.47
66742;BME280;53654;54.152;19.432;2023-06-01T09:15:16;101233.38;;;24.54;39.48
66742;BME280;53654;54.152;19.432;2023-06-01T09:17:48;101228.30;;;24.58;39.54
66742;BME280;53654;54.152;19.432;2023-06-01T09:20:28;101226.02;;;24.64;40.01
66742;BME280;53654;54.152;19.432;2023-06-01T09:22:58;101226.41;;;24.69;40.30
66742;BME280;53654;54.152;19.432;2023-06-01T09:25:33;101220.31;;;24.78;39.85
66742;BME280;53654;54.152;19.432;2023-06-01T09:28:02;101217.31;;;24.84;38.89
66742;BME280;53654;54.152;19.432;2023-06-01T09:30:42;101217.76;;;24.73;38.00
66742;BME280;53654;54.152;19.432;2023-06-01T09:33:16;101219.17;;;24.56;39.25
66742;BME280;53654;54.152;19.432;2023-06-01T09:35:46;101210.33;;;24.45;39.14
66742;BME280;53654;54.152;19.432;2023-06-01T09:38:22;101210.98;;;24.38;39.74
66742;BME280;53654;54.152;19.432;2023-06-01T09:41:02;101209.11;;;24.27;39.23
66742;BME280;53654;54.152;19.432;2023-06-01T09:43:33;101211.23;;;24.11;38.83
66742;BME280;53654;54.152;19.432;2023-06-01T09:46:09;101208.83;;;24.06;38.70
66742;BME280;53654;54.152;19.432;2023-06-01T09:48:38;101211.22;;;24.05;39.05
66742;BME280;53654;54.152;19.432;2023-06-01T09:51:27;101200.73;;;24.11;39.65
66742;BME280;53654;54.152;19.432;2023-06-01T09:53:59;101201.11;;;24.07;38.57
66742;BME280;53654;54.152;19.432;2023-06-01T09:56:42;101200.56;;;24.02;38.66
66742;BME280;53654;54.152;19.432;2023-06-01T09:59:10;101208.11;;;23.85;38.44
66742;BME280;53654;54.152;19.432;2023-06-01T10:01:38;101208.85;;;23.72;38.08
66742;BME280;53654;54.152;19.432;2023-06-01T10:04:08;101206.83;;;23.70;38.06
66742;BME280;53654;54.152;19.432;2023-06-01T10:06:39;101206.92;;;23.74;37.89
66742;BME280;53654;54.152;19.432;2023-06-01T10:09:12;101207.70;;;23.76;37.50
66742;BME280;53654;54.152;19.432;2023-06-01T10:11:43;101209.30;;;23.73;37.99
66742;BME280;53654;54.152;19.432;2023-06-01T10:14:12;101209.86;;;23.73;38.37
66742;BME280;53654;54.152;19.432;2023-06-01T10:16:41;101204.55;;;23.78;38.36
66742;BME280;53654;54.152;19.432;2023-06-01T10:19:12;101201.01;;;23.85;38.16
66742;BME280;53654;54.152;19.432;2023-06-01T10:21:42;101200.66;;;23.91;38.38
66742;BME280;53654;54.152;19.432;2023-06-01T10:24:13;101203.45;;;23.89;38.43
66742;BME280;53654;54.152;19.432;2023-06-01T10:26:47;101200.15;;;23.84;38.93
66742;BME280;53654;54.152;19.432;2023-06-01T10:29:20;101203.37;;;23.77;38.73
66742;BME280;53654;54.152;19.432;2023-06-01T10:31:48;101197.98;;;23.69;38.77
66742;BME280;53654;54.152;19.432;2023-06-01T10:34:36;101196.92;;;23.52;38.80
66742;BME280;53654;54.152;19.432;2023-06-01T10:39:33;101196.68;;;23.24;39.80
66742;BME280;53654;54.152;19.432;2023-06-01T10:44:46;101190.43;;;23.18;39.67
66742;BME280;53654;54.152;19.432;2023-06-01T10:52:36;101191.37;;;23.60;40.04
66742;BME280;53654;54.152;19.432;2023-06-01T10:57:34;101195.75;;;24.01;39.47
66742;BME280;53654;54.152;19.432;2023-06-01T11:00:22;101191.36;;;24.13;39.18
66742;BME280;53654;54.152;19.432;2023-06-01T11:06:02;101188.52;;;24.09;38.07
66742;BME280;53654;54.152;19.432;2023-06-01T11:08:52;101194.27;;;23.87;38.63
66742;BME280;53654;54.152;19.432;2023-06-01T11:11:21;101191.01;;;23.79;38.97
66742;BME280;53654;54.152;19.432;2023-06-01T11:14:09;101190.42;;;23.73;38.83
66742;BME280;53654;54.152;19.432;2023-06-01T11:16:39;101186.29;;;23.58;39.15
66742;BME280;53654;54.152;19.432;2023-06-01T11:19:08;101188.92;;;23.62;38.46
66742;BME280;53654;54.152;19.432;2023-06-01T11:21:38;101189.61;;;23.63;38.96
66742;BME280;53654;54.152;19.432;2023-06-01T11:24:10;101190.36;;;23.65;39.48
66742;BME280;53654;54.152;19.432;2023-06-01T11:26:50;101193.80;;;23.61;39.66
66742;BME280;53654;54.152;19.432;2023-06-01T11:29:21;101192.54;;;23.51;39.89
66742;BME280;53654;54.152;19.432;2023-06-01T11:31:54;101194.52;;;23.41;40.40
66742;BME280;53654;54.152;19.432;2023-06-01T11:34:40;101187.45;;;23.27;40.16
66742;BME280;53654;54.152;19.432;2023-06-01T11:37:15;101182.00;;;23.13;40.49
66742;BME280;53654;54.152;19.432;2023-06-01T11:39:46;101182.02;;;23.09;40.83
66742;BME280;53654;54.152;19.432;2023-06-01T11:42:17;101180.98;;;23.08;41.17
66742;BME280;53654;54.152;19.432;2023-06-01T11:44:58;101179.95;;;23.11;41.59
66742;BME280;53654;54.152;19.432;2023-06-01T11:47:30;101184.92;;;23.11;41.51
66742;BME280;53654;54.152;19.432;2023-06-01T11:49:59;101185.84;;;23.11;41.01
66742;BME280;53654;54.152;19.432;2023-06-01T11:52:28;101183.84;;;23.08;41.00
66742;BME280;53654;54.152;19.432;2023-06-01T11:55:02;101183.74;;;23.00;41.43
66742;BME280;53654;54.152;19.432;2023-06-01T11:57:31;101183.30;;;22.95;41.60
66742;BME280;53654;54.152;19.432;2023-06-01T11:59:59;101181.95;;;22.94;42.14
66742;BME280;53654;54.152;19.432;2023-06-01T12:02:28;101175.09;;;22.96;42.44
66742;BME280;53654;54.152;19.432;2023-06-01T12:05:00;101169.95;;;22.95;42.62
66742;BME280;53654;54.152;19.432;2023-06-01T12:07:49;101169.92;;;22.96;43.37
66742;BME280;53654;54.152;19.432;2023-06-01T12:10:22;101172.14;;;22.95;43.40
66742;BME280;53654;54.152;19.432;2023-06-01T12:12:51;101177.09;;;22.88;43.13
66742;BME280;53654;54.152;19.432;2023-06-01T12:15:20;101178.86;;;22.81;43.46
66742;BME280;53654;54.152;19.432;2023-06-01T12:17:50;101178.98;;;22.75;43.54
66742;BME280;53654;54.152;19.432;2023-06-01T12:20:48;101185.08;;;22.64;44.12
66742;BME280;53654;54.152;19.432;2023-06-01T12:23:17;101193.96;;;22.37;44.65
66742;BME280;53654;54.152;19.432;2023-06-01T12:25:52;101200.54;;;22.19;45.83
66742;BME280;53654;54.152;19.432;2023-06-01T12:28:22;101200.52;;;22.01;46.21
66742;BME280;53654;54.152;19.432;2023-06-01T12:31:11;101201.77;;;21.86;46.39
66742;BME280;53654;54.152;19.432;2023-06-01T12:33:42;101202.46;;;21.71;48.06
66742;BME280;53654;54.152;19.432;2023-06-01T12:36:33;101202.20;;;21.58;48.97
66742;BME280;53654;54.152;19.432;2023-06-01T12:39:04;101197.55;;;21.40;48.88
66742;BME280;53654;54.152;19.432;2023-06-01T12:41:33;101198.38;;;21.30;49.17
66742;BME280;53654;54.152;19.432;2023-06-01T12:44:01;101199.20;;;21.23;49.85
66742;BME280;53654;54.152;19.432;2023-06-01T12:46:30;101205.88;;;21.16;50.35
66742;BME280;53654;54.152;19.432;2023-06-01T12:49:15;101200.07;;;21.00;50.37
66742;BME280;53654;54.152;19.432;2023-06-01T12:51:46;101196.43;;;20.85;51.13
66742;BME280;53654;54.152;19.432;2023-06-01T12:54:15;101203.30;;;20.74;51.38
66742;BME280;53654;54.152;19.432;2023-06-01T12:56:44;101200.52;;;20.64;51.52
66742;BME280;53654;54.152;19.432;2023-06-01T12:59:12;101205.05;;;20.50;52.04
66742;BME280;53654;54.152;19.432;2023-06-01T13:01:40;101202.69;;;20.38;51.92
66742;BME280;53654;54.152;19.432;2023-06-01T13:04:09;101206.30;;;20.27;52.70
66742;BME280;53654;54.152;19.432;2023-06-01T13:06:38;101203.80;;;20.15;52.76
66742;BME280;53654;54.152;19.432;2023-06-01T13:09:07;101208.53;;;19.99;53.10
66742;BME280;53654;54.152;19.432;2023-06-01T13:11:35;101213.27;;;19.87;53.31
66742;BME280;53654;54.152;19.432;2023-06-01T13:14:04;101217.34;;;19.74;53.80
66742;BME280;53654;54.152;19.432;2023-06-01T13:16:32;101220.21;;;19.63;54.05
66742;BME280;53654;54.152;19.432;2023-06-01T13:19:01;101218.42;;;19.54;54.51
66742;BME280;53654;54.152;19.432;2023-06-01T13:21:32;101220.35;;;19.45;54.78
66742;BME280;53654;54.152;19.432;2023-06-01T13:24:01;101223.59;;;19.35;55.66
66742;BME280;53654;54.152;19.432;2023-06-01T13:26:31;101231.11;;;19.27;56.08